Montpelier, North Dakota
Current Conditions -  °F | °C
As of 4:56 AM on Sunday 23 Nov 2014 (Local Time) from KJMS Reporting Station
Overcast Overcast  
Wind Chill: 32°   Ceiling: 5000
Heat Index: 39°   Visibility: 10mi
Dew Point: 34°   Wind: 10mph
Humidity: 82%   Direction: 280°W
Pressure: 29.39"   Gusts: NA
Location:  46.7°N, 98.59°W
Report Text: KJMS 231056Z AUTO 28009KT 10SM OVC050 04/01 A2939 RMK AO2 RAE56 SLP963 P0000 T00390011
Loading
Personal Weather Stations






























Interactive Weather Map New forecast layout! Learn more

10-Day Weather Forecast

Advertisements
Track Severe Weather on mobile